Ada, MI

4:57 AM EDT on September 05, 2015 (GMT -0400)
Timber Canyon | | Change Station
CLOSE
Current Station
Personal Weather Station
Location: Ada, MI
Elevation: 755 ft
Nearby Weather Stations
Active Advisory: Dense Fog Advisory

Elev 755 ft 42.93 °N, 85.48 °W | Updated 8 seconds ago

Fog
Fog
64.4 °F
Feels Like 64.4 °F
N
0.0
Wind Variable Wind from SE
Gusts 0.0 mph

Today
High -- | Low -- °F
--% Chance of Precip.
Yesterday
High -- | Low -- °F
Precip. -- in
7:10 AM 8:10 PM
Waning Gibbous, 50% visible
Pressure 30.08 in
Visibility 1.2 miles
Clouds Mostly Cloudy 200 ft
Dew Point 64 °F
Humidity 98%
Rainfall 0.00 in
Snow Depth Not available.
UV 0 out of 12
Pollen 8.40 out of 12
Air Quality Not available.
Flu Activity Not available.
METAR KGRR 050853Z AUTO 00000KT 1 1/4SM R26L/0800V1600FT BR BKN002 18/17 A3008 RMK AO2 SLP184 T01780172 53004 $
Pressure 30.08 in
Visibility 1.2 miles
Clouds Mostly Cloudy 200 ft
Dew Point 64 °F
Humidity 98%
Rainfall 0.00 in
Snow Depth Not available.
UV 0 out of 12
Pollen 8.40 out of 12
Air Quality Not available.
Flu Activity Not available.
METAR KGRR 050853Z AUTO 00000KT 1 1/4SM R26L/0800V1600FT BR BKN002 18/17 A3008 RMK AO2 SLP184 T01780172 53004 $

10-Day Weather Forecast

×

Almanac

Astronomy

Sep. 05, 2015 Rise Set
Actual Time
Civil Twilight
Nautical Twilight
Astronomical Twilight
Moon
Length of Visible Light
Length of Day
Tomorrow will be .
, % of the Moon is Illuminated

Today's Extremes

State Highs State Lows

Community

WunderPhotos

Upload Photos

1,852,440 photos uploaded!

WunderBlogs® & News

Nearby

Air Quality

  Air Quality AQ Index Pollutant
Not available.

Snow Depth

Station Depth Elevation

Earthquake Activity

City Distance Mag. Time & Date
Minimum magnitude displayed is 2.5.

Coastal Water Temperatures

Place Temperature

Stations

Nearby Weather Stations

Station Location Temp. Windchill Dew Point Humidity Wind Precip. Elev Updated Type
                   
Dense Fog Advisory
Statement as of 2:57 AM EDT on September 05, 2015

... Dense fog advisory in effect until 10 am EDT this morning...

The National Weather Service in Grand Rapids has issued a dense
fog advisory... which is in effect until 10 am EDT this morning.

Hazardous weather...

* areas of dense fog with visibilities near zero in places

* the fog will diminish by late morning

impacts...

* motorists can expect hazardous travel conditions due to the
   very low visibilities

* sudden changes to the visibility



Precautionary/preparedness actions...

* if driving... slow down... use low beam headlights... and leave plenty
   of distance ahead of you.

* Weather preparedness information is available on line at
   http://go.USA.Gov/5og.